Time;durP1;ratioP1;P1;durP2;ratioP2;P2;SDS_P1;SDS_P2;PMS_P1;PMS_P2;Temp;Humidity;BMP_temperature;BMP_pressure;BME280_temperature;BME280_humidity;BME280_pressure;Samples;Min_cycle;Max_cycle;Signal;HPM_P1;HPM_P2
2022/11/29 00:02:15;;;;;;;11.70;7.00;;;;;;;-0.29;90.88;97023.63;105383;1296;22463;-77
2022/11/29 00:04:46;;;;;;;10.90;5.40;;;;;;;-0.31;90.65;97021.75;105429;1297;22532;-76
2022/11/29 00:07:17;;;;;;;11.80;7.40;;;;;;;-0.34;90.93;97019.59;105385;1288;23282;-76
2022/11/29 00:09:48;;;;;;;11.00;5.50;;;;;;;-0.42;90.55;97020.98;105308;1297;22474;-76
2022/11/29 00:12:20;;;;;;;12.30;6.70;;;;;;;-0.48;90.61;97023.45;105380;1289;22512;-76
2022/11/29 00:14:51;;;;;;;12.30;6.60;;;;;;;-0.46;90.65;97018.36;105463;1304;22489;-76
2022/11/29 00:17:24;;;;;;;13.70;7.50;;;;;;;-0.48;90.60;97019.85;105442;1304;22483;-76
2022/11/29 00:19:56;;;;;;;10.00;6.30;;;;;;;-0.53;90.37;97018.77;105351;1303;22509;-76
2022/11/29 00:22:28;;;;;;;11.50;7.30;;;;;;;-0.61;90.35;97018.14;105382;1281;22634;-76
2022/11/29 00:25:01;;;;;;;11.80;7.00;;;;;;;-0.63;90.76;97015.14;105471;1303;22483;-76
2022/11/29 00:27:32;;;;;;;11.60;6.80;;;;;;;-0.61;90.49;97009.85;105355;1303;25199;-76
2022/11/29 00:30:03;;;;;;;11.90;6.60;;;;;;;-0.58;90.56;97008.45;105360;1296;25254;-76
2022/11/29 00:32:35;;;;;;;10.40;6.20;;;;;;;-0.53;90.45;97009.80;105356;1297;22922;-76
2022/11/29 00:35:07;;;;;;;11.30;7.20;;;;;;;-0.53;90.41;97009.39;105363;1290;22526;-76
2022/11/29 00:37:41;;;;;;;11.00;7.30;;;;;;;-0.60;90.19;97006.13;105361;1299;25230;-76
2022/11/29 00:40:14;;;;;;;13.90;7.80;;;;;;;-0.65;90.37;97009.96;105465;1297;22602;-77
2022/11/29 00:42:46;;;;;;;10.40;6.20;;;;;;;-0.67;90.26;97006.33;105398;1283;24494;-76
2022/11/29 00:45:17;;;;;;;11.40;7.00;;;;;;;-0.66;90.35;97004.45;105504;1304;23636;-76
2022/11/29 00:47:50;;;;;;;10.80;6.80;;;;;;;-0.66;90.23;97001.96;105334;1296;22634;-77
2022/11/29 00:50:21;;;;;;;11.60;7.20;;;;;;;-0.65;89.96;96999.43;105356;1304;22510;-76
2022/11/29 00:52:53;;;;;;;12.00;6.70;;;;;;;-0.64;90.01;96997.35;105385;1282;24261;-76
2022/11/29 00:55:24;;;;;;;11.40;7.00;;;;;;;-0.62;90.03;96996.39;105375;1288;22480;-77
2022/11/29 00:57:55;;;;;;;12.70;7.30;;;;;;;-0.63;89.76;96993.75;105322;1304;22719;-76
2022/11/29 01:00:26;;;;;;;11.30;7.00;;;;;;;-0.62;89.90;96994.90;105360;1295;22453;-76
2022/11/29 01:03:01;;;;;;;12.20;7.10;;;;;;;-0.65;89.89;96991.38;105520;1284;24079;-77
2022/11/29 01:05:33;;;;;;;10.20;7.10;;;;;;;-0.63;89.84;96992.70;105504;1299;22618;-76
2022/11/29 01:08:05;;;;;;;9.90;6.20;;;;;;;-0.62;89.62;96992.14;105315;1302;23178;-76
2022/11/29 01:10:36;;;;;;;13.10;7.40;;;;;;;-0.61;89.53;96992.58;105358;1284;24912;-76
2022/11/29 01:13:08;;;;;;;11.90;6.90;;;;;;;-0.61;89.49;96992.95;105352;1303;25404;-76
2022/11/29 01:15:40;;;;;;;9.40;6.10;;;;;;;-0.59;89.47;96991.54;105343;1293;24878;-76
2022/11/29 01:18:14;;;;;;;11.80;7.20;;;;;;;-0.58;89.48;96987.61;105309;1304;22481;-76
2022/11/29 01:20:45;;;;;;;11.20;6.60;;;;;;;-0.58;89.27;96984.61;105410;1290;24501;-76
2022/11/29 01:23:16;;;;;;;12.40;7.30;;;;;;;-0.56;89.34;96982.70;105361;1305;22544;-76
2022/11/29 01:25:55;;;;;;;10.40;6.50;;;;;;;-0.59;89.23;96982.12;105374;1304;22466;-77
2022/11/29 01:28:27;;;;;;;8.70;5.70;;;;;;;-0.58;88.99;96982.41;105315;1304;23328;-76
2022/11/29 01:30:58;;;;;;;11.00;7.50;;;;;;;-0.60;88.86;96983.57;105344;1305;22488;-76
2022/11/29 01:33:30;;;;;;;10.80;7.10;;;;;;;-0.65;88.98;96980.69;105326;1284;23337;-76
2022/11/29 01:36:01;;;;;;;11.00;6.80;;;;;;;-0.69;88.72;96977.56;105365;1304;22476;-76
2022/11/29 01:38:33;;;;;;;10.50;7.00;;;;;;;-0.70;88.79;96971.98;105359;1304;22618;-77
2022/11/29 01:41:06;;;;;;;10.80;6.70;;;;;;;-0.70;88.89;96972.52;105375;1304;24338;-76
2022/11/29 01:44:02;;;;;;;11.60;7.30;;;;;;;-0.68;88.63;96970.52;105394;1305;22477;-76
2022/11/29 01:46:35;;;;;;;10.20;7.00;;;;;;;-0.68;88.46;96966.91;105406;1289;22520;-76
2022/11/29 01:49:12;;;;;;;9.80;5.60;;;;;;;-0.72;88.71;96962.36;105402;1292;22610;-76
2022/11/29 01:51:47;;;;;;;10.20;7.00;;;;;;;-0.67;88.49;96968.00;104540;1303;1189882;-76
2022/11/29 01:54:20;;;;;;;11.20;7.20;;;;;;;-0.72;88.73;96969.05;105386;1304;22476;-77
2022/11/29 01:56:52;;;;;;;12.70;7.50;;;;;;;-0.77;88.27;96959.64;105407;1297;25349;-77
2022/11/29 01:59:26;;;;;;;12.50;7.30;;;;;;;-0.75;88.49;96962.77;105390;1304;25542;-76
2022/11/29 02:02:05;;;;;;;12.10;7.20;;;;;;;-0.71;88.57;96962.02;105381;1300;22931;-76
2022/11/29 02:04:38;;;;;;;12.90;7.10;;;;;;;-0.68;88.34;96961.10;105476;1281;22471;-76
2022/11/29 02:07:09;;;;;;;12.70;7.90;;;;;;;-0.65;88.45;96961.98;105451;1296;22485;-77
2022/11/29 02:09:40;;;;;;;12.10;6.70;;;;;;;-0.66;88.32;96965.31;105321;1303;41192;-76
2022/11/29 02:12:23;;;;;;;10.30;6.30;;;;;;;-0.68;88.25;96961.71;105390;1304;22440;-77
2022/11/29 02:15:16;;;;;;;10.70;7.40;;;;;;;-0.73;87.91;96964.01;105420;1305;22487;-76
2022/11/29 02:18:01;;;;;;;10.60;6.70;;;;;;;-0.79;87.92;96964.69;105341;1289;22500;-76
2022/11/29 02:20:59;;;;;;;9.30;6.20;;;;;;;-0.86;88.03;96962.98;105366;1304;22467;-76
2022/11/29 02:23:55;;;;;;;9.80;6.40;;;;;;;-0.91;87.91;96965.50;105377;1297;25269;-76
2022/11/29 02:26:44;;;;;;;9.30;6.20;;;;;;;-0.91;88.22;96963.73;105383;1275;24334;-77
2022/11/29 02:29:38;;;;;;;10.60;6.60;;;;;;;-0.91;88.37;96965.83;105325;1305;22501;-77
2022/11/29 02:32:51;;;;;;;11.10;7.00;;;;;;;-0.93;88.43;96966.58;105348;1280;22467;-76
2022/11/29 02:35:36;;;;;;;10.70;6.70;;;;;;;-0.95;88.26;96966.46;105373;1280;24267;-76
2022/11/29 02:38:28;;;;;;;11.60;7.10;;;;;;;-0.97;88.34;96965.69;105343;1305;22459;-76
2022/11/29 02:41:18;;;;;;;10.40;6.90;;;;;;;-0.95;88.25;96967.41;105327;1297;22473;-77
2022/11/29 02:43:58;;;;;;;;;;;;;;;-1.01;88.24;96966.23;105387;1305;22465;-76
2022/11/29 02:46:48;;;;;;;11.30;6.50;;;;;;;-1.01;88.19;96967.46;105352;1297;22528;-77
2022/11/29 02:49:30;;;;;;;11.70;7.20;;;;;;;-1.02;88.34;96971.91;105321;1283;22486;-76
2022/11/29 02:52:06;;;;;;;11.80;7.20;;;;;;;-1.05;88.26;96973.42;105357;1303;22578;-77
2022/11/29 02:54:45;;;;;;;11.60;6.80;;;;;;;-1.09;88.26;96972.34;105363;1303;22608;-77
2022/11/29 02:57:27;;;;;;;10.90;6.80;;;;;;;-1.14;88.23;96977.27;105392;1296;22516;-77
2022/11/29 03:00:06;;;;;;;11.20;7.50;;;;;;;-1.21;88.26;96978.70;105500;1296;23165;-77
2022/11/29 03:02:49;;;;;;;11.50;7.10;;;;;;;-1.22;88.49;96981.41;105425;1288;24989;-77
2022/11/29 03:05:22;;;;;;;;;;;;;;;-1.26;88.24;96983.30;105527;1304;22450;-77
2022/11/29 03:08:06;;;;;;;10.90;6.60;;;;;;;-1.30;88.68;96986.05;105368;1296;22506;-77
2022/11/29 03:10:46;;;;;;;10.70;6.90;;;;;;;-1.32;88.57;96988.13;105399;1297;22466;-77
2022/11/29 03:13:25;;;;;;;10.80;7.00;;;;;;;-1.35;88.84;96991.88;105386;1305;22504;-76
2022/11/29 03:16:05;;;;;;;9.20;6.20;;;;;;;-1.36;88.92;96989.92;105444;1296;22646;-76
2022/11/29 03:18:45;;;;;;;9.50;6.20;;;;;;;-1.32;88.99;96991.38;105459;1304;22513;-77
2022/11/29 03:21:26;;;;;;;11.00;6.90;;;;;;;-1.32;89.00;96990.61;105364;1287;24381;-76
2022/11/29 03:24:05;;;;;;;11.60;7.10;;;;;;;-1.24;89.24;96987.20;105453;1280;22471;-77
2022/11/29 03:26:41;;;;;;;11.60;6.70;;;;;;;-1.09;89.53;96989.75;105467;1304;22831;-76
2022/11/29 03:29:22;;;;;;;10.10;7.00;;;;;;;-1.07;88.99;96995.71;105368;1303;22540;-77
2022/11/29 03:32:02;;;;;;;11.60;6.80;;;;;;;-1.14;88.86;96998.12;105469;1303;22682;-77
2022/11/29 03:34:47;;;;;;;10.50;6.00;;;;;;;-1.18;88.93;97000.19;105335;1287;24416;-76
2022/11/29 03:37:21;;;;;;;7.80;4.50;;;;;;;-1.14;89.03;96996.27;105363;1276;22503;-77
2022/11/29 03:39:59;;;;;;;11.20;6.90;;;;;;;-0.97;89.33;96995.39;105356;1303;22443;-77
2022/11/29 03:42:36;;;;;;;9.50;5.90;;;;;;;-0.92;88.88;96997.41;105383;1304;22599;-77
2022/11/29 03:45:14;;;;;;;9.20;6.00;;;;;;;-0.95;88.83;96996.92;105394;1302;22636;-76
2022/11/29 03:47:54;;;;;;;11.30;6.60;;;;;;;-0.95;88.43;97002.29;105301;1305;22464;-77
2022/11/29 03:50:32;;;;;;;9.20;5.60;;;;;;;-0.94;88.67;97002.70;105333;1301;22476;-77
2022/11/29 03:53:11;;;;;;;12.10;7.40;;;;;;;-0.90;88.48;97005.98;105351;1277;23287;-76
2022/11/29 03:55:53;;;;;;;10.20;5.60;;;;;;;-0.92;88.39;97010.77;105365;1304;25237;-77
2022/11/29 03:58:37;;;;;;;9.20;4.50;;;;;;;-0.97;88.34;97010.05;105405;1298;22562;-77
2022/11/29 04:01:37;;;;;;;9.00;5.90;;;;;;;-0.94;88.35;97013.94;105422;1304;22541;-77
2022/11/29 04:04:41;;;;;;;10.60;6.20;;;;;;;-1.01;88.21;97015.70;105379;1304;22497;-77
2022/11/29 04:07:42;;;;;;;10.50;5.60;;;;;;;-1.05;88.13;97017.09;105360;1304;22679;-76
2022/11/29 04:10:31;;;;;;;9.60;5.80;;;;;;;-1.05;88.39;97020.89;105378;1305;22544;-77
2022/11/29 04:13:44;;;;;;;7.60;4.30;;;;;;;-1.07;88.12;97024.14;105380;1280;22489;-76
2022/11/29 04:17:00;;;;;;;11.20;6.30;;;;;;;-0.98;88.49;97028.98;105380;1305;24238;-77
2022/11/29 04:20:00;;;;;;;6.70;4.90;;;;;;;-1.00;88.31;97031.68;105323;1281;22502;-77
2022/11/29 04:23:05;;;;;;;10.00;6.00;;;;;;;-1.04;88.03;97034.35;105331;1296;22565;-77
2022/11/29 04:25:59;;;;;;;12.00;7.40;;;;;;;-1.09;88.20;97042.42;105356;1286;22471;-77
2022/11/29 04:28:59;;;;;;;10.60;6.90;;;;;;;-1.16;88.21;97047.94;105343;1295;22439;-77
2022/11/29 04:31:45;;;;;;;9.20;5.00;;;;;;;-1.21;88.06;97047.85;105381;1291;22467;-76
2022/11/29 04:34:44;;;;;;;11.20;6.90;;;;;;;-1.22;88.24;97047.45;105334;1287;22485;-77
2022/11/29 04:37:34;;;;;;;12.50;5.30;;;;;;;-1.21;88.26;97051.73;105367;1305;22481;-76
2022/11/29 04:40:35;;;;;;;12.50;6.10;;;;;;;-1.22;88.00;97053.23;105335;1304;24055;-77
2022/11/29 04:43:17;;;;;;;;;;;;;;;-1.28;88.07;97055.17;105351;1281;24242;-77
2022/11/29 04:46:13;;;;;;;11.90;6.30;;;;;;;-1.35;87.97;97058.06;105367;1305;22513;-77
2022/11/29 04:49:19;;;;;;;11.10;6.60;;;;;;;-1.41;88.32;97059.13;105449;1296;25890;-77
2022/11/29 04:52:08;;;;;;;10.60;6.30;;;;;;;-1.42;88.20;97060.56;105471;1305;22511;-77
2022/11/29 04:54:48;;;;;;;10.90;6.20;;;;;;;-1.41;88.51;97063.81;105373;1294;22639;-76
2022/11/29 04:57:27;;;;;;;9.90;5.60;;;;;;;-1.33;88.52;97063.06;105388;1297;24254;-77
2022/11/29 05:00:07;;;;;;;9.80;6.20;;;;;;;-1.27;88.47;97064.66;105424;1273;22455;-77
2022/11/29 05:02:41;;;;;;;;;;;;;;;-1.19;88.49;97066.38;105444;1300;22490;-76
2022/11/29 05:05:27;;;;;;;9.10;6.10;;;;;;;-1.06;88.69;97071.29;105437;1304;22594;-77
2022/11/29 05:08:11;;;;;;;9.70;5.40;;;;;;;-1.07;88.11;97076.70;105421;1284;22882;-76
2022/11/29 05:10:52;;;;;;;10.00;6.10;;;;;;;-1.15;87.91;97078.20;105348;1286;26312;-77
2022/11/29 05:13:26;;;;;;;;;;;;;;;-1.12;88.06;97076.19;105436;1305;22572;-76
2022/11/29 05:16:17;;;;;;;11.00;6.30;;;;;;;-1.11;88.26;97079.00;105487;1281;24255;-77
2022/11/29 05:19:11;;;;;;;9.30;6.00;;;;;;;-1.17;87.74;97078.52;105374;1284;24205;-77
2022/11/29 05:21:53;;;;;;;8.30;5.50;;;;;;;-1.22;88.01;97085.06;105399;1297;22531;-76
2022/11/29 05:24:39;;;;;;;36.40;12.40;;;;;;;-1.15;87.79;97085.48;105499;1294;22757;-77
2022/11/29 05:27:17;;;;;;;27.00;10.30;;;;;;;-1.20;87.71;97088.59;105385;1293;24247;-77
2022/11/29 05:29:58;;;;;;;13.00;7.00;;;;;;;-1.29;87.77;97082.89;105324;1297;22488;-76
2022/11/29 05:32:35;;;;;;;14.80;8.90;;;;;;;-1.32;87.60;97087.55;105373;1290;22543;-76
2022/11/29 05:35:33;;;;;;;25.40;14.40;;;;;;;-1.42;87.50;97085.18;105490;1296;22474;-76
2022/11/29 05:38:15;;;;;;;14.90;8.20;;;;;;;-1.56;87.51;97090.28;105340;1305;22514;-76
2022/11/29 05:41:00;;;;;;;6.70;4.00;;;;;;;-1.53;87.81;97091.55;105360;1298;22468;-76
2022/11/29 05:43:49;;;;;;;10.70;6.90;;;;;;;-1.50;88.21;97094.64;105472;1304;22594;-76
2022/11/29 05:46:29;;;;;;;13.80;8.70;;;;;;;-1.45;88.28;97095.31;105418;1304;22478;-76
2022/11/29 05:49:16;;;;;;;10.20;6.30;;;;;;;-1.56;87.66;97101.28;105341;1304;25240;-76
2022/11/29 05:51:57;;;;;;;11.40;7.80;;;;;;;-1.62;87.82;97103.52;105402;1298;22892;-76
2022/11/29 05:54:34;;;;;;;12.40;7.70;;;;;;;-1.67;87.94;97104.25;105342;1297;22468;-76
2022/11/29 05:57:16;;;;;;;14.10;8.70;;;;;;;-1.71;87.94;97106.13;105369;1303;24987;-76
2022/11/29 05:59:50;;;;;;;13.00;8.40;;;;;;;-1.74;88.00;97109.73;105310;1305;22460;-76
2022/11/29 06:02:33;;;;;;;10.00;6.40;;;;;;;-1.79;87.92;97113.55;105392;1296;26349;-76
2022/11/29 06:05:12;;;;;;;8.60;4.50;;;;;;;-1.59;88.56;97116.27;105371;1304;22523;-76
2022/11/29 06:07:52;;;;;;;10.90;6.50;;;;;;;-1.38;88.78;97116.28;105442;1294;22515;-76
2022/11/29 06:10:28;;;;;;;11.70;6.50;;;;;;;-1.26;88.41;97120.98;105375;1303;22729;-76
2022/11/29 06:13:11;;;;;;;10.40;5.80;;;;;;;-1.23;88.45;97122.71;105383;1303;25938;-76
2022/11/29 06:16:05;;;;;;;10.60;6.40;;;;;;;-1.07;88.40;97120.45;105370;1305;22489;-76
2022/11/29 06:18:59;;;;;;;11.10;6.90;;;;;;;-1.11;87.81;97123.10;105343;1304;22647;-77
2022/11/29 06:21:39;;;;;;;9.80;6.70;;;;;;;-1.24;87.20;97124.20;105245;1296;25098;-76
2022/11/29 06:24:33;;;;;;;6.30;4.60;;;;;;;-1.25;87.63;97129.10;105360;1304;22738;-76
2022/11/29 06:27:28;;;;;;;7.40;4.40;;;;;;;-1.24;87.84;97127.48;105379;1305;24259;-76
2022/11/29 06:30:08;;;;;;;10.10;6.20;;;;;;;-1.06;87.82;97127.36;105345;1305;22482;-76
2022/11/29 06:32:49;;;;;;;8.20;4.50;;;;;;;-0.93;87.46;97132.24;105385;1305;22525;-76
2022/11/29 06:35:36;;;;;;;10.90;6.70;;;;;;;-0.84;87.58;97133.33;105347;1303;22472;-76
2022/11/29 06:38:16;;;;;;;6.90;4.00;;;;;;;-0.85;87.46;97132.35;105317;1305;22842;-76
2022/11/29 06:40:51;;;;;;;8.90;5.00;;;;;;;-0.78;87.03;97131.44;105366;1297;22477;-76
2022/11/29 06:43:24;;;;;;;10.10;6.30;;;;;;;-0.58;87.07;97136.09;105425;1304;22471;-75
2022/11/29 06:46:01;;;;;;;10.90;6.40;;;;;;;-0.44;86.44;97137.94;105425;1294;25301;-76
2022/11/29 06:48:41;;;;;;;10.50;7.00;;;;;;;-0.11;86.54;97148.09;105349;1305;22511;-76
2022/11/29 06:51:21;;;;;;;9.40;6.40;;;;;;;0.33;86.08;97138.48;105376;1305;25224;-76
2022/11/29 06:53:58;;;;;;;9.60;6.40;;;;;;;0.76;85.84;97139.59;105374;1289;22466;-76
2022/11/29 06:56:40;;;;;;;9.70;5.90;;;;;;;1.03;84.40;97139.83;105350;1303;22467;-76
2022/11/29 06:59:22;;;;;;;9.30;5.90;;;;;;;1.36;84.02;97142.02;105302;1297;22491;-76
2022/11/29 07:02:01;;;;;;;8.30;5.90;;;;;;;1.81;84.15;97142.67;105367;1296;22541;-76
2022/11/29 07:04:52;;;;;;;9.10;6.40;;;;;;;2.36;83.06;97141.52;105326;1305;22478;-77
2022/11/29 07:07:25;;;;;;;9.40;6.60;;;;;;;2.65;81.58;97145.95;105342;1305;22483;-76
2022/11/29 07:09:59;;;;;;;9.40;6.50;;;;;;;3.10;81.88;97145.95;105402;1292;23244;-77
2022/11/29 07:12:32;;;;;;;9.10;6.50;;;;;;;3.63;81.32;97142.48;105396;1287;22473;-77
2022/11/29 07:15:05;;;;;;;12.00;10.00;;;;;;;3.93;80.13;97147.58;105412;1304;22493;-77
2022/11/29 07:17:48;;;;;;;9.20;7.20;;;;;;;4.34;79.39;97144.98;105416;1304;22697;-77
2022/11/29 07:20:27;;;;;;;8.70;6.20;;;;;;;4.50;78.01;97146.42;105326;1306;23005;-77
2022/11/29 07:23:09;;;;;;;8.80;6.00;;;;;;;4.47;76.17;97152.02;105376;1302;22687;-77
2022/11/29 07:25:51;;;;;;;8.50;6.10;;;;;;;4.54;76.16;97156.83;105360;1298;22598;-77
2022/11/29 07:28:41;;;;;;;8.40;6.40;;;;;;;4.78;75.89;97156.61;105323;1303;22567;-77
2022/11/29 07:31:16;;;;;;;;;;;;;;;4.96;75.28;97162.48;105407;1287;25347;-76
2022/11/29 07:33:57;;;;;;;9.50;7.10;;;;;;;4.97;74.20;97158.52;105471;1287;22471;-76
2022/11/29 07:36:39;;;;;;;9.60;7.00;;;;;;;4.65;73.51;97160.30;105330;1303;22533;-76
2022/11/29 07:39:23;;;;;;;9.90;6.90;;;;;;;4.63;74.42;97164.29;105331;1305;25251;-76
2022/11/29 07:42:02;;;;;;;9.00;6.40;;;;;;;4.71;74.08;97163.44;105361;1299;22494;-76
2022/11/29 07:44:45;;;;;;;10.10;6.70;;;;;;;4.53;73.45;97169.24;105350;1298;22517;-76
2022/11/29 07:47:19;;;;;;;9.20;6.60;;;;;;;4.47;73.57;97167.19;105364;1288;23168;-76
2022/11/29 07:49:50;;;;;;;9.80;7.40;;;;;;;4.31;72.26;97167.22;105306;1305;22535;-76
2022/11/29 07:52:21;;;;;;;10.30;7.40;;;;;;;3.89;72.57;97173.98;105370;1304;25251;-76
2022/11/29 07:54:53;;;;;;;10.00;7.50;;;;;;;4.06;73.15;97172.92;105353;1301;22549;-76
2022/11/29 07:57:24;;;;;;;9.60;6.70;;;;;;;4.16;73.12;97174.79;105367;1294;22965;-76
2022/11/29 07:59:55;;;;;;;11.30;7.90;;;;;;;4.03;72.33;97178.20;105465;1305;25369;-76
2022/11/29 08:02:31;;;;;;;11.00;7.70;;;;;;;4.01;73.29;97181.98;105409;1296;22594;-76
2022/11/29 08:05:03;;;;;;;11.70;8.10;;;;;;;4.05;72.77;97183.10;105440;1304;22504;-76
2022/11/29 08:07:36;;;;;;;11.30;8.40;;;;;;;3.82;72.85;97190.14;105534;1296;22481;-76
2022/11/29 08:10:11;;;;;;;10.90;8.30;;;;;;;3.62;72.04;97191.02;105414;1300;25001;-76
2022/11/29 08:12:47;;;;;;;10.60;7.90;;;;;;;3.31;72.21;97198.05;105452;1302;22485;-76
2022/11/29 08:15:20;;;;;;;11.80;7.70;;;;;;;3.04;72.64;97199.88;105449;1294;23929;-76
2022/11/29 08:17:51;;;;;;;10.30;7.80;;;;;;;2.92;73.02;97197.77;105514;1304;22482;-76
2022/11/29 08:20:23;;;;;;;11.70;8.80;;;;;;;2.81;73.17;97201.56;105479;1296;22527;-76
2022/11/29 08:23:02;;;;;;;11.80;8.70;;;;;;;2.93;73.96;97198.85;105388;1304;22899;-76
2022/11/29 08:25:33;;;;;;;14.10;8.30;;;;;;;2.93;73.54;97201.74;105451;1309;22467;-76
2022/11/29 08:28:06;;;;;;;11.60;8.60;;;;;;;2.89;73.70;97201.51;105319;1304;22887;-76
2022/11/29 08:30:37;;;;;;;16.50;9.00;;;;;;;2.86;73.86;97201.98;105378;1305;22557;-76
2022/11/29 08:33:11;;;;;;;11.70;9.10;;;;;;;2.83;73.70;97199.18;105345;1279;22451;-76
2022/11/29 08:35:42;;;;;;;13.00;8.50;;;;;;;2.79;73.65;97203.63;105350;1304;23349;-76
2022/11/29 08:38:13;;;;;;;11.90;8.00;;;;;;;2.70;73.74;97204.36;105352;1286;22512;-76
2022/11/29 08:40:44;;;;;;;11.00;7.50;;;;;;;2.66;74.06;97206.42;105365;1308;22467;-76
2022/11/29 08:43:16;;;;;;;9.90;6.80;;;;;;;2.67;74.20;97207.11;105506;1308;22794;-76
2022/11/29 08:45:51;;;;;;;10.50;7.00;;;;;;;2.68;74.23;97207.05;105412;1298;22489;-76
2022/11/29 08:48:23;;;;;;;10.40;7.40;;;;;;;2.67;74.39;97211.98;105390;1302;22476;-76
2022/11/29 08:50:55;;;;;;;8.30;6.60;;;;;;;2.63;74.08;97213.62;105399;1306;22538;-77
2022/11/29 08:53:44;;;;;;;9.50;6.80;;;;;;;2.66;74.23;97215.02;105397;1303;22505;-76
2022/11/29 08:56:19;;;;;;;10.80;6.70;;;;;;;2.77;74.42;97206.46;105408;1305;22512;-76
2022/11/29 08:58:51;;;;;;;9.40;6.40;;;;;;;2.78;73.94;97206.38;105355;1298;22642;-77
2022/11/29 09:01:26;;;;;;;10.50;6.60;;;;;;;2.84;74.29;97201.23;105385;1312;22509;-76
2022/11/29 09:04:01;;;;;;;9.90;6.50;;;;;;;2.91;74.37;97201.23;105364;1298;22864;-76
2022/11/29 09:06:37;;;;;;;9.10;6.60;;;;;;;2.93;74.05;97201.90;105359;1305;25255;-76
2022/11/29 09:09:12;;;;;;;9.30;6.30;;;;;;;2.94;74.12;97200.52;105332;1281;24908;-76
2022/11/29 09:11:44;;;;;;;8.50;5.80;;;;;;;3.09;74.52;97200.16;105474;1304;22479;-76
2022/11/29 09:14:18;;;;;;;8.00;5.60;;;;;;;3.27;74.62;97199.93;105350;1288;22489;-76
2022/11/29 09:16:49;;;;;;;7.50;5.20;;;;;;;3.39;74.22;97200.99;105466;1279;23334;-76
2022/11/29 09:19:22;;;;;;;7.40;5.20;;;;;;;3.41;73.49;97204.81;105483;1288;22479;-76
2022/11/29 09:21:53;;;;;;;8.30;6.10;;;;;;;3.49;73.22;97203.77;105421;1304;22517;-76
2022/11/29 09:24:25;;;;;;;8.20;5.60;;;;;;;3.59;73.22;97205.73;105371;1296;24267;-77
2022/11/29 09:26:56;;;;;;;6.90;5.30;;;;;;;3.56;72.25;97202.83;105378;1304;22572;-76
2022/11/29 09:29:30;;;;;;;7.80;5.80;;;;;;;3.51;72.56;97200.90;105344;1306;27025;-76
2022/11/29 09:32:02;;;;;;;8.70;6.50;;;;;;;3.66;72.73;97203.64;105359;1305;22528;-76
2022/11/29 09:34:33;;;;;;;8.50;5.70;;;;;;;3.81;72.93;97202.94;105337;1305;22734;-76
2022/11/29 09:37:09;;;;;;;7.70;5.90;;;;;;;3.91;72.22;97198.29;105435;1298;22486;-76
2022/11/29 09:39:41;;;;;;;6.40;4.60;;;;;;;3.91;72.03;97193.90;105445;1281;23642;-76
2022/11/29 09:42:27;;;;;;;8.40;6.30;;;;;;;3.91;72.03;97196.14;105415;1290;22651;-76
2022/11/29 09:45:06;;;;;;;9.80;6.30;;;;;;;4.01;72.30;97197.40;105379;1297;22575;-76
2022/11/29 09:47:58;;;;;;;7.80;5.30;;;;;;;4.13;71.61;97197.21;105395;1305;22543;-76
2022/11/29 09:50:34;;;;;;;9.00;6.00;;;;;;;4.28;71.58;97198.13;105417;1297;30579;-76
2022/11/29 09:53:22;;;;;;;7.50;5.60;;;;;;;4.37;71.54;97199.83;105425;1304;22619;-76
2022/11/29 09:56:11;;;;;;;6.70;5.60;;;;;;;4.53;71.13;97203.16;105353;1305;22471;-77
2022/11/29 09:58:48;;;;;;;8.00;5.60;;;;;;;4.55;70.57;97203.96;105299;1305;22715;-76
2022/11/29 10:01:25;;;;;;;8.40;5.80;;;;;;;4.48;70.51;97201.88;105399;1305;22515;-76
2022/11/29 10:04:03;;;;;;;7.10;5.10;;;;;;;4.57;70.60;97206.73;105398;1305;22489;-76
2022/11/29 10:06:38;;;;;;;8.20;6.20;;;;;;;4.56;70.07;97204.97;105360;1281;23884;-76
2022/11/29 10:09:20;;;;;;;8.60;6.00;;;;;;;4.57;70.05;97200.58;105426;1300;22507;-76
2022/11/29 10:12:05;;;;;;;8.50;6.50;;;;;;;4.50;69.58;97201.49;105412;1304;22524;-76
2022/11/29 10:14:45;;;;;;;8.80;5.70;;;;;;;4.51;69.45;97199.02;105421;1288;23950;-76
2022/11/29 10:17:29;;;;;;;7.10;5.50;;;;;;;4.50;69.56;97197.20;105509;1304;22941;-76
2022/11/29 10:20:06;;;;;;;7.80;5.60;;;;;;;4.67;69.60;97195.95;105476;1304;24489;-76
2022/11/29 10:22:44;;;;;;;8.60;6.30;;;;;;;4.68;69.20;97191.84;105364;1296;23442;-76
2022/11/29 10:25:24;;;;;;;10.10;7.00;;;;;;;4.71;69.03;97191.16;105360;1285;22620;-76
2022/11/29 10:27:55;;;;;;;13.50;7.40;;;;;;;4.76;68.63;97189.50;105413;1296;24326;-77
2022/11/29 10:30:27;;;;;;;11.70;6.80;;;;;;;4.85;69.03;97186.92;105410;1289;23230;-76
2022/11/29 10:33:01;;;;;;;8.30;6.00;;;;;;;5.04;69.30;97188.63;105396;1290;22779;-77
2022/11/29 10:35:33;;;;;;;8.80;5.90;;;;;;;5.17;68.81;97184.80;105365;1295;22524;-77
2022/11/29 10:38:06;;;;;;;8.70;6.30;;;;;;;5.24;68.47;97183.97;105486;1301;23765;-77
2022/11/29 10:40:40;;;;;;;9.40;6.90;;;;;;;5.33;68.70;97185.01;105336;1284;24472;-77
2022/11/29 10:43:11;;;;;;;9.60;6.00;;;;;;;5.41;68.28;97181.27;105492;1303;22476;-76
2022/11/29 10:45:48;;;;;;;9.50;6.80;;;;;;;5.38;67.62;97181.48;105358;1305;22472;-76
2022/11/29 10:48:22;;;;;;;9.30;6.10;;;;;;;5.36;68.15;97180.67;105293;1301;24233;-77
2022/11/29 10:50:54;;;;;;;8.30;5.50;;;;;;;5.45;68.49;97178.20;105386;1288;23403;-76
2022/11/29 10:53:30;;;;;;;8.60;6.20;;;;;;;5.46;67.81;97178.95;105425;1287;23267;-77
2022/11/29 10:56:06;;;;;;;8.30;6.30;;;;;;;5.32;66.70;97172.77;105359;1293;23838;-77
2022/11/29 10:58:53;;;;;;;8.30;6.20;;;;;;;5.26;67.52;97171.92;105324;1276;22580;-76
2022/11/29 11:01:27;;;;;;;9.90;6.30;;;;;;;5.39;67.88;97168.08;105382;1305;22474;-76
2022/11/29 11:04:03;;;;;;;9.30;6.10;;;;;;;5.35;66.10;97164.06;105403;1291;23727;-77
2022/11/29 11:06:48;;;;;;;9.20;6.60;;;;;;;5.18;66.35;97163.79;105410;1303;22699;-77
2022/11/29 11:09:25;;;;;;;9.90;6.70;;;;;;;5.18;65.97;97159.39;105467;1303;22583;-76
2022/11/29 11:11:59;;;;;;;8.40;6.00;;;;;;;5.21;66.28;97162.02;105414;1281;22467;-77
2022/11/29 11:14:36;;;;;;;9.40;6.00;;;;;;;5.22;65.92;97157.17;105344;1297;25417;-76
2022/11/29 11:17:25;;;;;;;8.00;6.30;;;;;;;5.21;66.02;97158.27;105377;1281;23763;-77
2022/11/29 11:19:59;;;;;;;9.40;5.90;;;;;;;5.33;66.44;97159.55;105350;1297;22738;-77
2022/11/29 11:22:32;;;;;;;8.80;6.20;;;;;;;5.46;66.26;97159.77;105360;1303;22633;-76
2022/11/29 11:25:07;;;;;;;8.20;5.70;;;;;;;5.57;66.72;97159.04;105367;1304;22491;-77
2022/11/29 11:27:41;;;;;;;8.80;6.40;;;;;;;5.66;65.65;97160.92;105370;1304;24479;-77
2022/11/29 11:30:25;;;;;;;10.00;6.90;;;;;;;5.77;66.09;97156.20;105361;1305;22575;-77
2022/11/29 11:33:18;;;;;;;9.20;6.30;;;;;;;5.80;65.79;97155.83;105396;1303;22499;-76
2022/11/29 11:36:05;;;;;;;9.30;6.50;;;;;;;5.84;65.43;97155.48;105429;1304;22520;-77
2022/11/29 11:38:38;;;;;;;10.70;7.20;;;;;;;5.86;64.92;97159.25;105415;1298;24239;-77
2022/11/29 11:41:19;;;;;;;10.80;7.50;;;;;;;5.73;63.48;97157.00;105372;1301;22509;-77
2022/11/29 11:43:57;;;;;;;12.70;9.20;;;;;;;5.53;63.47;97156.12;105384;1280;22942;-77
2022/11/29 11:46:49;;;;;;;16.60;11.10;;;;;;;5.46;63.61;97157.66;105361;1305;22534;-77
2022/11/29 11:49:29;;;;;;;16.20;11.60;;;;;;;5.36;63.84;97163.67;105355;1304;22472;-77
2022/11/29 11:52:03;;;;;;;15.10;10.10;;;;;;;5.40;64.55;97161.23;105381;1304;22484;-76
2022/11/29 11:54:35;;;;;;;18.20;13.30;;;;;;;5.41;64.56;97161.92;105582;1288;22477;-77
2022/11/29 11:57:16;;;;;;;20.00;15.20;;;;;;;5.55;66.07;97155.95;105440;1284;23648;-77
2022/11/29 11:59:51;;;;;;;22.70;17.50;;;;;;;5.71;66.61;97153.52;105341;1305;25137;-77
2022/11/29 12:02:36;;;;;;;24.20;17.60;;;;;;;5.84;67.09;97159.89;105481;1298;22487;-77
2022/11/29 12:05:14;;;;;;;25.90;18.90;;;;;;;5.94;67.12;97157.39;105456;1289;22525;-77
2022/11/29 12:07:51;;;;;;;23.10;17.60;;;;;;;6.03;67.44;97159.64;105398;1304;22537;-77
2022/11/29 12:10:28;;;;;;;22.50;17.20;;;;;;;6.12;67.61;97159.18;105345;1296;25395;-77
2022/11/29 12:13:01;;;;;;;23.90;18.70;;;;;;;6.18;67.53;97158.44;105405;1298;23899;-77
2022/11/29 12:15:38;;;;;;;25.00;19.30;;;;;;;6.22;67.49;97157.85;105462;1304;23405;-77
2022/11/29 12:18:14;;;;;;;25.10;19.60;;;;;;;6.24;67.37;97158.30;105476;1297;25433;-77
2022/11/29 12:20:50;;;;;;;26.80;19.20;;;;;;;6.22;67.41;97161.84;105417;1304;22495;-77